MiSS Monie — WCZ9166 — position and weather

sailwx.info

Track history (hours):
 
Tides and Currents Weather Stations Pressure Air Temp Water Temp Dewpoint Dewpoint Depression Visibility Wind Speed Wind Dir Waves Ship Positions

MiSS Monie

Owner: MISS MONIE TOWING LLC, HULL, TX. More information available from US FCC via Universal Licensing System and Coast Guard Vessel Documentation Center.

Last reported at 2018-Jun-25 06:19 UTC. Time now 2018-Jun-25 11:27 UTC.
Position N 29°54' W 092°27'.

Length 20 m.

Type: Ship. MMSI: 366962010.

Date/timePositionNaut miles runAvg speedWind from/ knotsBaromVisibWave heightAir tempDewpointWater temp
2018-Jun-25 06:19N 29°54' W 092°27'2 6.2
2018-Jun-25 05:56N 29°53' W 092°24'3 5.8
2018-Jun-25 05:24N 29°51' W 092°22'2 6.0
2018-Jun-25 05:00N 29°50' W 092°19'3 5.5
2018-Jun-25 04:30N 29°49' W 092°16'3 5.4
2018-Jun-25 04:00N 29°48' W 092°14'2 3.7
2018-Jun-25 03:30N 29°47' W 092°12'0 1.0
2018-Jun-25 03:00N 29°47' W 092°11'1 2.8
2018-Jun-25 02:30N 29°47' W 092°10'2 3.8
2018-Jun-25 02:00N 29°47' W 092°07'3 6.5
2018-Jun-25 01:30N 29°48' W 092°04'60 4.6
2018-Jun-24 12:21N 29°34' W 090°57'2 6.0
2018-Jun-24 11:57N 29°33' W 090°54'3 5.6
2018-Jun-24 11:30N 29°32' W 090°52'3 5.4
2018-Jun-24 10:58N 29°32' W 090°48'3 5.4
2018-Jun-24 10:30N 29°33' W 090°46'3 5.3
2018-Jun-24 10:00N 29°34' W 090°43'2 4.4
2018-Jun-24 09:30N 29°36' W 090°43'1 1.9
2018-Jun-24 09:00N 29°37' W 090°42'0 0.0
2018-Jun-24 08:30N 29°37' W 090°42'1 1.6
2018-Jun-24 08:00N 29°36' W 090°41'3 5.2
2018-Jun-24 07:30N 29°35' W 090°38'3 5.8
2018-Jun-24 06:59N 29°34' W 090°35'  
2018-Jun-20 20:26N 29°33' W 090°26'2 5.0
2018-Jun-20 19:58N 29°34' W 090°29'2 5.0
2018-Jun-20 19:30N 29°34' W 090°31'3 4.8
2018-Jun-20 18:59N 29°34' W 090°34'2 4.7
2018-Jun-20 18:30N 29°35' W 090°37'2 4.7
2018-Jun-20 18:00N 29°36' W 090°39'2 4.4
2018-Jun-20 17:30N 29°37' W 090°41'1 2.5
2018-Jun-20 17:00N 29°36' W 090°43'2 3.1
2018-Jun-20 16:30N 29°35' W 090°43'2 3.5
2018-Jun-20 16:00N 29°34' W 090°45'1 2.7
2018-Jun-20 15:30N 29°33' W 090°46'0 0.4
2018-Jun-20 15:00N 29°32' W 090°46'2 4.0
2018-Jun-20 14:29N 29°32' W 090°48'60 3.5
2018-Jun-19 21:34N 29°51' W 091°54'1 4.5
2018-Jun-19 21:26N 29°51' W 091°54'2 4.5
2018-Jun-19 21:00N 29°51' W 091°57'2 4.7
2018-Jun-19 20:30N 29°50' W 091°59'2 4.7
2018-Jun-19 20:00N 29°49' W 092°02'3 5.1
2018-Jun-19 19:30N 29°48' W 092°05'3 5.4
2018-Jun-19 19:00N 29°47' W 092°07'2 4.8
2018-Jun-19 18:30N 29°47' W 092°10'2 4.2
2018-Jun-19 18:00N 29°47' W 092°12'0 0.6
2018-Jun-19 17:30N 29°47' W 092°13'2 3.3
2018-Jun-19 17:00N 29°48' W 092°14'1 1.7
2018-Jun-19 16:30N 29°48' W 092°15'0 0.0
2018-Jun-19 16:00N 29°48' W 092°15'0 0.0
2018-Jun-19 15:30N 29°48' W 092°15'0 0.0
2018-Jun-19 15:00N 29°48' W 092°15'0 0.0
2018-Jun-19 14:30N 29°48' W 092°15'0 0.7
2018-Jun-19 14:00N 29°48' W 092°16'2 4.2
2018-Jun-19 13:30N 29°50' W 092°18'2 4.3
2018-Jun-19 13:00N 29°51' W 092°20'39 4.5
2018-Jun-19 04:22N 29°56' W 093°05'2 3.9
2018-Jun-19 03:59N 29°56' W 093°07'2 4.9
2018-Jun-19 03:30N 29°56' W 093°09'2 4.7
2018-Jun-19 03:00N 29°58' W 093°11'2 4.8
2018-Jun-19 02:30N 29°60' W 093°13'2 4.6
2018-Jun-19 02:00N 30°02' W 093°14'2 4.2
2018-Jun-19 01:30N 30°03' W 093°16'2 4.2
2018-Jun-19 01:00N 30°05' W 093°17'0 1.0
2018-Jun-19 00:30N 30°05' W 093°18'1 2.6
2018-Jun-19 00:00N 30°06' W 093°19'0 0.7
2018-Jun-18 23:30N 30°06' W 093°19'0 0.0
2018-Jun-18 23:00N 30°06' W 093°19'0 0.0
2018-Jun-18 22:30N 30°06' W 093°19'0 0.0
2018-Jun-18 22:00N 30°06' W 093°19'0 0.0
2018-Jun-18 21:30N 30°06' W 093°19'0 0.0
2018-Jun-18 21:00N 30°06' W 093°19'0 0.0
2018-Jun-18 20:29N 30°06' W 093°19'0 0.0
2018-Jun-18 20:00N 30°06' W 093°19'1 2.1
2018-Jun-18 19:30N 30°05' W 093°20'2 4.0
2018-Jun-18 19:00N 30°04' W 093°21'2 3.4
2018-Jun-18 18:30N 30°05' W 093°20'1 2.7
2018-Jun-18 18:00N 30°06' W 093°19'0 0.0
2018-Jun-18 17:30N 30°06' W 093°19'0 0.0
2018-Jun-18 17:00N 30°06' W 093°19'0 0.0
2018-Jun-18 16:29N 30°06' W 093°19'0 0.0
2018-Jun-18 16:00N 30°06' W 093°19'0 0.0
2018-Jun-18 15:30N 30°06' W 093°19'0 0.0
2018-Jun-18 15:00N 30°06' W 093°19'0 0.0
2018-Jun-18 14:30N 30°06' W 093°19'0 0.0
2018-Jun-18 14:00N 30°06' W 093°19'0 0.0
2018-Jun-18 13:30N 30°06' W 093°19'0 0.0
2018-Jun-18 13:00N 30°06' W 093°19'0 0.0
2018-Jun-18 12:30N 30°06' W 093°19'0 0.0
2018-Jun-18 12:00N 30°06' W 093°19'0 0.0
2018-Jun-18 11:30N 30°06' W 093°19'0 0.0
2018-Jun-18 11:00N 30°06' W 093°19'0 0.0
2018-Jun-18 10:30N 30°06' W 093°19'0 0.0
2018-Jun-18 10:00N 30°06' W 093°19'0 0.0
2018-Jun-18 09:30N 30°06' W 093°19'0 0.0
2018-Jun-18 09:00N 30°06' W 093°19'0 0.0
2018-Jun-18 08:30N 30°06' W 093°19'0 0.0
2018-Jun-18 08:00N 30°06' W 093°19'0 0.0
2018-Jun-18 07:30N 30°06' W 093°19'0 0.0
2018-Jun-18 07:00N 30°06' W 093°19'1 2.0
2018-Jun-18 06:30N 30°05' W 093°20'2 3.8
2018-Jun-18 06:00N 30°04' W 093°21'1 1.6
2018-Jun-18 05:30N 30°04' W 093°22'0 0.0
2018-Jun-18 05:00N 30°04' W 093°22'0 0.0
2018-Jun-18 04:30N 30°04' W 093°22'0 0.0
2018-Jun-18 04:00N 30°04' W 093°22'0 0.0
2018-Jun-18 03:30N 30°04' W 093°22'0 0.0
2018-Jun-18 03:00N 30°04' W 093°22'0 0.0
2018-Jun-18 02:30N 30°04' W 093°22'0 0.0
2018-Jun-18 02:00N 30°04' W 093°22'0 0.0
2018-Jun-18 01:30N 30°04' W 093°22'0 0.0
2018-Jun-18 01:00N 30°04' W 093°22'0 0.0
2018-Jun-18 00:30N 30°04' W 093°22'0 0.0
2018-Jun-18 00:00N 30°04' W 093°22'0 0.0
2018-Jun-17 23:30N 30°04' W 093°22'0 0.0
2018-Jun-17 23:00N 30°04' W 093°22'0 0.0
2018-Jun-17 22:30N 30°04' W 093°22'0 0.0
2018-Jun-17 22:00N 30°04' W 093°22'0 0.0
2018-Jun-17 21:30N 30°04' W 093°22'0 0.0
2018-Jun-17 21:00N 30°04' W 093°22'0 0.0
2018-Jun-17 20:30N 30°04' W 093°22'0 0.1
2018-Jun-17 20:00N 30°04' W 093°22'1 2.7
2018-Jun-17 19:30N 30°04' W 093°24'2 4.0
2018-Jun-17 19:00N 30°04' W 093°21'3 5.6
2018-Jun-17 18:30N 30°04' W 093°24'2 3.4
2018-Jun-17 18:00N 30°04' W 093°26'2 4.0
2018-Jun-17 17:30N 30°04' W 093°29'2 4.0
2018-Jun-17 17:00N 30°04' W 093°31'2 4.1
2018-Jun-17 16:26N 30°04' W 093°34'2 3.9
2018-Jun-17 16:00N 30°04' W 093°36'2 4.3
2018-Jun-17 15:29N 30°04' W 093°38'3 5.2
2018-Jun-17 15:00N 30°03' W 093°41'2 4.8
2018-Jun-17 14:30N 30°03' W 093°44'2 4.8
2018-Jun-17 14:00N 30°01' W 093°46'3 5.2
2018-Jun-17 13:30N 29°59' W 093°48'2 4.9
2018-Jun-17 13:00N 29°58' W 093°51'2 5.0
2018-Jun-17 12:30N 29°56' W 093°52'3 5.6
2018-Jun-17 12:00N 29°54' W 093°54'2 5.1
2018-Jun-17 11:30N 29°52' W 093°56'2 4.7
2018-Jun-17 11:01N 29°50' W 093°57'2 3.9
2018-Jun-17 10:30N 29°49' W 093°59'2 4.1
2018-Jun-17 10:00N 29°48' W 094°01'2 4.1
2018-Jun-17 09:30N 29°46' W 094°03'2 4.1
2018-Jun-17 09:00N 29°45' W 094°04'2 4.0
2018-Jun-17 08:30N 29°44' W 094°06'2 3.9
2018-Jun-17 08:00N 29°42' W 094°08'2 4.0
2018-Jun-17 07:30N 29°41' W 094°10'2 3.7
2018-Jun-17 07:00N 29°41' W 094°12'2 4.1
2018-Jun-17 06:30N 29°40' W 094°14'2 3.9
2018-Jun-17 06:00N 29°39' W 094°16'2 4.0
2018-Jun-17 05:29N 29°38' W 094°18'2 4.0
2018-Jun-17 05:00N 29°37' W 094°20'3 3.8
2018-Jun-17 04:10N 29°36' W 094°23'1 3.8
2018-Jun-17 04:00N 29°36' W 094°24'21 4.3
2018-Jun-16 22:57N 29°24' W 094°45'2 4.5
2018-Jun-16 22:24N 29°23' W 094°47'1 3.4
2018-Jun-16 22:00N 29°22' W 094°48'14 4.4
2018-Jun-16 18:53N 29°34' W 094°56'2 4.6
2018-Jun-16 18:30N 29°36' W 094°57'2 4.7
2018-Jun-16 17:59N 29°38' W 094°58'3 4.6
2018-Jun-16 17:26N 29°40' W 094°59'  
Track history (hours):
 
Tides and Currents Weather Stations Pressure Air Temp Water Temp Dewpoint Dewpoint Depression Visibility Wind Speed Wind Dir Waves Ship Positions

MiSS Monie

Owner: MISS MONIE TOWING LLC, HULL, TX. More information available from US FCC via Universal Licensing System and Coast Guard Vessel Documentation Center.

Last reported at 2018-Jun-25 06:19 UTC. Time now 2018-Jun-25 11:27 UTC.
Position N 29°54' W 092°27'.

Length 20 m.

Type: Ship. MMSI: 366962010.

Date/timePositionNaut miles runAvg speedWind from/ knotsBaromVisibWave heightAir tempDewpointWater temp
2018-Jun-25 06:19N 29°54' W 092°27'2 6.2
2018-Jun-25 05:56N 29°53' W 092°24'3 5.8
2018-Jun-25 05:24N 29°51' W 092°22'2 6.0
2018-Jun-25 05:00N 29°50' W 092°19'3 5.5
2018-Jun-25 04:30N 29°49' W 092°16'3 5.4
2018-Jun-25 04:00N 29°48' W 092°14'2 3.7
2018-Jun-25 03:30N 29°47' W 092°12'0 1.0
2018-Jun-25 03:00N 29°47' W 092°11'1 2.8
2018-Jun-25 02:30N 29°47' W 092°10'2 3.8
2018-Jun-25 02:00N 29°47' W 092°07'3 6.5
2018-Jun-25 01:30N 29°48' W 092°04'60 4.6
2018-Jun-24 12:21N 29°34' W 090°57'2 6.0
2018-Jun-24 11:57N 29°33' W 090°54'3 5.6
2018-Jun-24 11:30N 29°32' W 090°52'3 5.4
2018-Jun-24 10:58N 29°32' W 090°48'3 5.4
2018-Jun-24 10:30N 29°33' W 090°46'3 5.3
2018-Jun-24 10:00N 29°34' W 090°43'2 4.4
2018-Jun-24 09:30N 29°36' W 090°43'1 1.9
2018-Jun-24 09:00N 29°37' W 090°42'0 0.0
2018-Jun-24 08:30N 29°37' W 090°42'1 1.6
2018-Jun-24 08:00N 29°36' W 090°41'3 5.2
2018-Jun-24 07:30N 29°35' W 090°38'3 5.8
2018-Jun-24 06:59N 29°34' W 090°35'  
2018-Jun-20 20:26N 29°33' W 090°26'2 5.0
2018-Jun-20 19:58N 29°34' W 090°29'2 5.0
2018-Jun-20 19:30N 29°34' W 090°31'3 4.8
2018-Jun-20 18:59N 29°34' W 090°34'2 4.7
2018-Jun-20 18:30N 29°35' W 090°37'2 4.7
2018-Jun-20 18:00N 29°36' W 090°39'2 4.4
2018-Jun-20 17:30N 29°37' W 090°41'1 2.5
2018-Jun-20 17:00N 29°36' W 090°43'2 3.1
2018-Jun-20 16:30N 29°35' W 090°43'2 3.5
2018-Jun-20 16:00N 29°34' W 090°45'1 2.7
2018-Jun-20 15:30N 29°33' W 090°46'0 0.4
2018-Jun-20 15:00N 29°32' W 090°46'2 4.0
2018-Jun-20 14:29N 29°32' W 090°48'60 3.5
2018-Jun-19 21:34N 29°51' W 091°54'1 4.5
2018-Jun-19 21:26N 29°51' W 091°54'2 4.5
2018-Jun-19 21:00N 29°51' W 091°57'2 4.7
2018-Jun-19 20:30N 29°50' W 091°59'2 4.7
2018-Jun-19 20:00N 29°49' W 092°02'3 5.1
2018-Jun-19 19:30N 29°48' W 092°05'3 5.4
2018-Jun-19 19:00N 29°47' W 092°07'2 4.8
2018-Jun-19 18:30N 29°47' W 092°10'2 4.2
2018-Jun-19 18:00N 29°47' W 092°12'0 0.6
2018-Jun-19 17:30N 29°47' W 092°13'2 3.3
2018-Jun-19 17:00N 29°48' W 092°14'1 1.7
2018-Jun-19 16:30N 29°48' W 092°15'0 0.0
2018-Jun-19 16:00N 29°48' W 092°15'0 0.0
2018-Jun-19 15:30N 29°48' W 092°15'0 0.0
2018-Jun-19 15:00N 29°48' W 092°15'0 0.0
2018-Jun-19 14:30N 29°48' W 092°15'0 0.7
2018-Jun-19 14:00N 29°48' W 092°16'2 4.2
2018-Jun-19 13:30N 29°50' W 092°18'2 4.3
2018-Jun-19 13:00N 29°51' W 092°20'39 4.5
2018-Jun-19 04:22N 29°56' W 093°05'2 3.9
2018-Jun-19 03:59N 29°56' W 093°07'2 4.9
2018-Jun-19 03:30N 29°56' W 093°09'2 4.7
2018-Jun-19 03:00N 29°58' W 093°11'2 4.8
2018-Jun-19 02:30N 29°60' W 093°13'2 4.6
2018-Jun-19 02:00N 30°02' W 093°14'2 4.2
2018-Jun-19 01:30N 30°03' W 093°16'2 4.2
2018-Jun-19 01:00N 30°05' W 093°17'0 1.0
2018-Jun-19 00:30N 30°05' W 093°18'1 2.6
2018-Jun-19 00:00N 30°06' W 093°19'0 0.7
2018-Jun-18 23:30N 30°06' W 093°19'0 0.0
2018-Jun-18 23:00N 30°06' W 093°19'0 0.0
2018-Jun-18 22:30N 30°06' W 093°19'0 0.0
2018-Jun-18 22:00N 30°06' W 093°19'0 0.0
2018-Jun-18 21:30N 30°06' W 093°19'0 0.0
2018-Jun-18 21:00N 30°06' W 093°19'0 0.0
2018-Jun-18 20:29N 30°06' W 093°19'0 0.0
2018-Jun-18 20:00N 30°06' W 093°19'1 2.1
2018-Jun-18 19:30N 30°05' W 093°20'2 4.0
2018-Jun-18 19:00N 30°04' W 093°21'2 3.4
2018-Jun-18 18:30N 30°05' W 093°20'1 2.7
2018-Jun-18 18:00N 30°06' W 093°19'0 0.0
2018-Jun-18 17:30N 30°06' W 093°19'0 0.0
2018-Jun-18 17:00N 30°06' W 093°19'0 0.0
2018-Jun-18 16:29N 30°06' W 093°19'0 0.0
2018-Jun-18 16:00N 30°06' W 093°19'0 0.0
2018-Jun-18 15:30N 30°06' W 093°19'0 0.0
2018-Jun-18 15:00N 30°06' W 093°19'0 0.0
2018-Jun-18 14:30N 30°06' W 093°19'0 0.0
2018-Jun-18 14:00N 30°06' W 093°19'0 0.0
2018-Jun-18 13:30N 30°06' W 093°19'0 0.0
2018-Jun-18 13:00N 30°06' W 093°19'0 0.0
2018-Jun-18 12:30N 30°06' W 093°19'0 0.0
2018-Jun-18 12:00N 30°06' W 093°19'0 0.0
2018-Jun-18 11:30N 30°06' W 093°19'0 0.0
2018-Jun-18 11:00N 30°06' W 093°19'0 0.0
2018-Jun-18 10:30N 30°06' W 093°19'0 0.0
2018-Jun-18 10:00N 30°06' W 093°19'0 0.0
2018-Jun-18 09:30N 30°06' W 093°19'0 0.0
2018-Jun-18 09:00N 30°06' W 093°19'0 0.0
2018-Jun-18 08:30N 30°06' W 093°19'0 0.0
2018-Jun-18 08:00N 30°06' W 093°19'0 0.0
2018-Jun-18 07:30N 30°06' W 093°19'0 0.0
2018-Jun-18 07:00N 30°06' W 093°19'1 2.0
2018-Jun-18 06:30N 30°05' W 093°20'2 3.8
2018-Jun-18 06:00N 30°04' W 093°21'1 1.6
2018-Jun-18 05:30N 30°04' W 093°22'0 0.0
2018-Jun-18 05:00N 30°04' W 093°22'0 0.0
2018-Jun-18 04:30N 30°04' W 093°22'0 0.0
2018-Jun-18 04:00N 30°04' W 093°22'0 0.0
2018-Jun-18 03:30N 30°04' W 093°22'0 0.0
2018-Jun-18 03:00N 30°04' W 093°22'0 0.0
2018-Jun-18 02:30N 30°04' W 093°22'0 0.0
2018-Jun-18 02:00N 30°04' W 093°22'0 0.0
2018-Jun-18 01:30N 30°04' W 093°22'0 0.0
2018-Jun-18 01:00N 30°04' W 093°22'0 0.0
2018-Jun-18 00:30N 30°04' W 093°22'0 0.0
2018-Jun-18 00:00N 30°04' W 093°22'0 0.0
2018-Jun-17 23:30N 30°04' W 093°22'0 0.0
2018-Jun-17 23:00N 30°04' W 093°22'0 0.0
2018-Jun-17 22:30N 30°04' W 093°22'0 0.0
2018-Jun-17 22:00N 30°04' W 093°22'0 0.0
2018-Jun-17 21:30N 30°04' W 093°22'0 0.0
2018-Jun-17 21:00N 30°04' W 093°22'0 0.0
2018-Jun-17 20:30N 30°04' W 093°22'0 0.1
2018-Jun-17 20:00N 30°04' W 093°22'1 2.7
2018-Jun-17 19:30N 30°04' W 093°24'2 4.0
2018-Jun-17 19:00N 30°04' W 093°21'3 5.6
2018-Jun-17 18:30N 30°04' W 093°24'2 3.4
2018-Jun-17 18:00N 30°04' W 093°26'2 4.0
2018-Jun-17 17:30N 30°04' W 093°29'2 4.0
2018-Jun-17 17:00N 30°04' W 093°31'2 4.1
2018-Jun-17 16:26N 30°04' W 093°34'2 3.9
2018-Jun-17 16:00N 30°04' W 093°36'2 4.3
2018-Jun-17 15:29N 30°04' W 093°38'3 5.2
2018-Jun-17 15:00N 30°03' W 093°41'2 4.8
2018-Jun-17 14:30N 30°03' W 093°44'2 4.8
2018-Jun-17 14:00N 30°01' W 093°46'3 5.2
2018-Jun-17 13:30N 29°59' W 093°48'2 4.9
2018-Jun-17 13:00N 29°58' W 093°51'2 5.0
2018-Jun-17 12:30N 29°56' W 093°52'3 5.6
2018-Jun-17 12:00N 29°54' W 093°54'2 5.1
2018-Jun-17 11:30N 29°52' W 093°56'2 4.7
2018-Jun-17 11:01N 29°50' W 093°57'2 3.9
2018-Jun-17 10:30N 29°49' W 093°59'2 4.1
2018-Jun-17 10:00N 29°48' W 094°01'2 4.1
2018-Jun-17 09:30N 29°46' W 094°03'2 4.1
2018-Jun-17 09:00N 29°45' W 094°04'2 4.0
2018-Jun-17 08:30N 29°44' W 094°06'2 3.9
2018-Jun-17 08:00N 29°42' W 094°08'2 4.0
2018-Jun-17 07:30N 29°41' W 094°10'2 3.7
2018-Jun-17 07:00N 29°41' W 094°12'2 4.1
2018-Jun-17 06:30N 29°40' W 094°14'2 3.9
2018-Jun-17 06:00N 29°39' W 094°16'2 4.0
2018-Jun-17 05:29N 29°38' W 094°18'2 4.0
2018-Jun-17 05:00N 29°37' W 094°20'3 3.8
2018-Jun-17 04:10N 29°36' W 094°23'1 3.8
2018-Jun-17 04:00N 29°36' W 094°24'21 4.3
2018-Jun-16 22:57N 29°24' W 094°45'2 4.5
2018-Jun-16 22:24N 29°23' W 094°47'1 3.4
2018-Jun-16 22:00N 29°22' W 094°48'14 4.4
2018-Jun-16 18:53N 29°34' W 094°56'2 4.6
2018-Jun-16 18:30N 29°36' W 094°57'2 4.7
2018-Jun-16 17:59N 29°38' W 094°58'3 4.6
2018-Jun-16 17:26N 29°40' W 094°59'  

Dump ship's entire track history